Strona główna
METAR-TAF:

METAR-TAF

Lotnisko :

Kunming, Chiny

Szerokość geograficzna: 25-01N, Długość geograficzna: 102-41E, wysokość: 1892 m

Aktualna obserwacja pogody

Raport powstał 10 minut temu, godzina 12:00 UTC
Wiatr 12 kt od wschodnio-północny wschód
Temperatura 17°C
Wilgotność 94%
Ciśnienie 1017 hPa
Widzialność 10 km lub więcej
Mało chmury na wysokości 2600 ft, Cumulonimbus.
Rozproszone chmury na wysokości 2600 ft
Przerywane chmury na wysokości 4000 ft
słaby przelotny opad deszczu

METAR: ZPPP 161200Z 06006MPS 9999 -SHRA FEW026CB SCT026 BKN040 17/16 Q1017 BECMG TL1230 TSRA

czas: 20:10 (12:10 UTC)

Prognoza

Raport powstał 5 godziny i 9 minut temu, godzina 07:01 UTC
Prognoza ważna od 16 godzina 12 UTC do 17 godzina 12 UTC
Wiatr 12 kt od północny wschód
Widzialność 10 km lub więcej
Rozproszone chmury na wysokości 2600 ft

TAF: ZPPP 160701Z 1612/1712 04006MPS 9999 SCT026 TX25/1708Z TN15/1623Z

Obserwacja i prognoza pogody dla ponad 4000 lotnisk (raport METAR i TAF).

Dostępne stacje oznaczono żółtymi i czerwonymi punktami na mapie.

Najedź kursorem aby zobaczyć nazwę stacji.

Kliknij aby zobaczyć obserwacje i prognozy pogody.

Aby zmienić mapę: kliknij na zielony przycisk z czarnym krzyżykiem, aby powiększyć; na zielony przycisk z myślnikiem, aby pomniejszyć; na zielone strzałki, aby przejść do map sąsiednich.


METAR-TAF: